Time;durP1;ratioP1;P1;durP2;ratioP2;P2;SDS_P1;SDS_P2;PMS_P1;PMS_P2;Temp;Humidity;BMP_temperature;BMP_pressure;BME280_temperature;BME280_humidity;BME280_pressure;Samples;Min_cycle;Max_cycle;Signal;HPM_P1;HPM_P2
2021/03/07 00:00:39;;;;;;;1999.90;999.90;;;0.20;99.90;;;;;;4961940;28;20191;-79
2021/03/07 00:03:05;;;;;;;1999.90;999.90;;;0.10;99.90;;;;;;4978569;28;20160;-79
2021/03/07 00:05:30;;;;;;;1999.90;999.90;;;0.10;99.90;;;;;;4979046;28;20410;-79
2021/03/07 00:07:56;;;;;;;1999.90;999.90;;;0.10;99.90;;;;;;4978630;28;20167;-79
2021/03/07 00:10:22;;;;;;;1999.90;999.90;;;0.10;99.90;;;;;;4978930;28;20206;-79
2021/03/07 00:12:49;;;;;;;1999.90;999.90;;;0.10;99.90;;;;;;4978590;28;20156;-79
2021/03/07 00:15:17;;;;;;;1999.90;999.90;;;0.10;99.90;;;;;;4961394;28;20171;-79
2021/03/07 00:17:43;;;;;;;1999.90;999.90;;;0.00;99.90;;;;;;4978515;28;20586;-79
2021/03/07 00:20:12;;;;;;;1999.90;999.90;;;-0.10;99.90;;;;;;4978855;28;20171;-79
2021/03/07 00:22:38;;;;;;;1999.90;999.90;;;-0.10;99.90;;;;;;4978542;28;20218;-79
2021/03/07 00:25:06;;;;;;;1999.90;999.90;;;-0.10;99.90;;;;;;4978880;28;20168;-79
2021/03/07 00:27:32;;;;;;;1999.90;999.90;;;-0.10;99.90;;;;;;4978758;28;20167;-79
2021/03/07 00:29:58;;;;;;;1999.90;999.90;;;-0.20;99.90;;;;;;4977908;28;20214;-79
2021/03/07 00:32:23;;;;;;;1999.90;999.90;;;-0.10;99.90;;;;;;4961422;28;20193;-81
2021/03/07 00:34:49;;;;;;;1999.90;999.90;;;0.00;99.90;;;;;;4960962;28;20403;-80
2021/03/07 00:37:15;;;;;;;1999.90;999.90;;;-0.10;99.90;;;;;;4978557;28;20168;-80
2021/03/07 00:39:41;;;;;;;1999.90;999.90;;;-0.10;99.90;;;;;;4964201;28;20178;-80
2021/03/07 00:42:06;;;;;;;1999.90;999.90;;;-0.20;99.90;;;;;;4981254;28;20171;-80
2021/03/07 00:44:32;;;;;;;1999.90;999.90;;;-0.20;99.90;;;;;;4964157;28;20275;-80
2021/03/07 00:46:58;;;;;;;1999.90;999.90;;;-0.20;99.90;;;;;;4981829;28;20168;-80
2021/03/07 00:49:29;;;;;;;1999.90;999.90;;;-0.20;99.90;;;;;;4964418;28;20223;-80
2021/03/07 00:51:55;;;;;;;1999.90;999.90;;;-0.30;99.90;;;;;;4981839;28;20206;-80
2021/03/07 00:54:21;;;;;;;1999.90;999.90;;;-0.30;99.90;;;;;;4981910;28;20190;-80
2021/03/07 00:56:47;;;;;;;1999.90;999.90;;;-0.40;99.90;;;;;;4981728;28;20163;-80
2021/03/07 00:59:13;;;;;;;1999.90;999.90;;;-0.40;99.90;;;;;;4981719;28;20217;-80
2021/03/07 01:01:39;;;;;;;1999.90;999.90;;;-0.40;99.90;;;;;;4981360;28;20175;-80
2021/03/07 01:04:05;;;;;;;1999.90;999.90;;;-0.50;99.90;;;;;;4963741;28;20172;-80
2021/03/07 01:06:31;;;;;;;1999.90;999.90;;;-0.50;99.90;;;;;;4981097;28;20713;-80
2021/03/07 01:08:57;;;;;;;1999.90;999.90;;;-0.50;99.90;;;;;;4981187;28;20194;-80
2021/03/07 01:11:23;;;;;;;1999.90;999.90;;;-0.50;99.90;;;;;;4981226;28;20160;-80
2021/03/07 01:13:49;;;;;;;1999.90;999.90;;;-0.60;99.90;;;;;;4963946;28;20167;-80
2021/03/07 01:16:15;;;;;;;1999.90;999.90;;;-0.50;99.90;;;;;;4980836;28;20214;-80
2021/03/07 01:18:40;;;;;;;1999.90;999.90;;;-0.50;99.90;;;;;;4964071;28;20174;-80
2021/03/07 01:21:06;;;;;;;1999.90;999.90;;;-0.50;99.90;;;;;;4963695;28;20175;-80
2021/03/07 01:23:33;;;;;;;1999.90;999.90;;;-0.50;99.90;;;;;;4963902;28;20730;-80
2021/03/07 01:26:00;;;;;;;1999.90;999.90;;;-0.50;99.90;;;;;;4981024;28;20175;-80
2021/03/07 01:28:25;;;;;;;1999.90;999.90;;;-0.50;99.90;;;;;;4963651;28;20189;-80
2021/03/07 01:30:52;;;;;;;1999.90;999.90;;;-0.60;99.90;;;;;;4963959;28;20191;-80
2021/03/07 01:33:18;;;;;;;1999.90;999.90;;;-0.70;99.90;;;;;;4963859;28;20833;-80
2021/03/07 01:35:43;;;;;;;1999.90;999.90;;;-0.70;99.90;;;;;;4981489;28;20171;-80
2021/03/07 01:38:09;;;;;;;1999.90;999.90;;;-0.80;99.90;;;;;;4964105;28;20411;-80
2021/03/07 01:40:44;;;;;;;1999.90;999.90;;;-0.80;99.90;;;;;;4981080;28;20163;-80
2021/03/07 01:43:10;;;;;;;1999.90;999.90;;;-0.80;99.90;;;;;;4981148;28;20246;-80
2021/03/07 01:45:36;;;;;;;1999.90;999.90;;;-0.80;99.90;;;;;;4981431;28;20239;-80
2021/03/07 01:48:07;;;;;;;1999.90;999.90;;;-0.80;99.90;;;;;;4980667;28;20183;-80
2021/03/07 01:50:35;;;;;;;1999.90;999.90;;;-0.80;99.90;;;;;;4981115;28;20446;-80
2021/03/07 01:53:01;;;;;;;1999.90;999.90;;;-0.80;99.90;;;;;;4980494;28;20167;-80
2021/03/07 01:55:28;;;;;;;1999.90;999.90;;;-0.90;99.90;;;;;;4963532;28;20722;-80
2021/03/07 01:58:20;;;;;;;1999.90;999.90;;;-0.90;99.90;;;;;;4981224;28;20167;-81
2021/03/07 02:00:47;;;;;;;1999.90;999.90;;;-1.00;99.90;;;;;;4957681;28;20219;-80
2021/03/07 02:03:13;;;;;;;1999.90;999.90;;;-1.00;99.90;;;;;;4963649;28;20171;-81
2021/03/07 02:05:39;;;;;;;1999.90;999.90;;;-1.00;99.90;;;;;;4981585;28;20163;-80
2021/03/07 02:08:05;;;;;;;1999.90;999.90;;;-1.00;99.90;;;;;;4964070;28;20171;-80
2021/03/07 02:10:35;;;;;;;1999.90;999.90;;;-1.00;99.90;;;;;;4981144;28;20442;-80
2021/03/07 02:13:18;;;;;;;1999.90;999.90;;;-1.00;99.90;;;;;;4981026;28;20171;-81
2021/03/07 02:15:47;;;;;;;1999.90;999.90;;;-1.10;99.90;;;;;;4980747;28;20155;-81
2021/03/07 02:18:14;;;;;;;1999.90;999.90;;;-1.00;99.90;;;;;;4963941;28;20178;-81
2021/03/07 02:20:49;;;;;;;1999.90;999.90;;;-1.10;99.90;;;;;;4981157;28;20167;-81
2021/03/07 02:23:21;;;;;;;1999.90;999.90;;;-1.10;99.90;;;;;;4981814;28;20610;-81
2021/03/07 02:25:48;;;;;;;1999.90;999.90;;;-1.20;99.90;;;;;;4964536;28;20175;-81
2021/03/07 02:28:14;;;;;;;1999.90;999.90;;;-1.20;99.90;;;;;;4985571;28;20190;-80
2021/03/07 02:30:40;;;;;;;1999.90;999.90;;;-1.20;99.90;;;;;;4987636;28;20218;-81
2021/03/07 02:33:25;;;;;;;1999.90;999.90;;;-1.20;99.90;;;;;;4983580;28;20626;-81
2021/03/07 02:36:16;;;;;;;1999.90;999.90;;;-1.30;99.90;;;;;;4980418;28;20144;-80
2021/03/07 02:38:46;;;;;;;1999.90;999.90;;;-1.30;99.90;;;;;;4979331;28;20238;-81
2021/03/07 02:41:14;;;;;;;1999.90;999.90;;;-1.30;99.90;;;;;;4980494;28;20661;-81
2021/03/07 02:43:44;;;;;;;1999.90;999.90;;;-1.30;99.90;;;;;;4980303;28;20171;-82
2021/03/07 02:46:15;;;;;;;1999.90;999.90;;;-1.30;99.90;;;;;;4980396;28;20167;-81
2021/03/07 02:48:43;;;;;;;1999.90;999.90;;;-1.30;99.90;;;;;;4979950;28;20174;-81
2021/03/07 02:51:10;;;;;;;1999.90;999.90;;;-1.30;99.90;;;;;;4962862;28;20163;-81
2021/03/07 02:53:38;;;;;;;1999.90;999.90;;;-1.30;99.90;;;;;;4964045;28;20534;-81
2021/03/07 02:56:16;;;;;;;1999.90;999.90;;;-1.30;99.90;;;;;;4963643;28;20167;-81
2021/03/07 02:58:43;;;;;;;1999.90;999.90;;;-1.40;99.90;;;;;;4980686;28;20160;-81
2021/03/07 03:01:13;;;;;;;1999.90;999.90;;;-1.40;99.90;;;;;;4980861;28;20171;-81
2021/03/07 03:03:42;;;;;;;1999.90;999.90;;;-1.40;99.90;;;;;;4980635;28;20147;-81
2021/03/07 03:06:10;;;;;;;1999.90;999.90;;;-1.40;99.90;;;;;;4980350;28;20232;-81
2021/03/07 03:08:38;;;;;;;1999.90;999.90;;;-1.40;99.90;;;;;;4962489;28;20167;-81
2021/03/07 03:11:05;;;;;;;1999.90;999.90;;;-1.40;99.90;;;;;;4962416;28;20177;-81
2021/03/07 03:13:34;;;;;;;1999.90;999.90;;;-1.50;99.90;;;;;;4980517;28;20696;-81
2021/03/07 03:16:01;;;;;;;1999.90;999.90;;;-1.50;99.90;;;;;;4963472;28;20198;-81
2021/03/07 03:18:32;;;;;;;1999.90;999.90;;;-1.50;99.90;;;;;;4980811;28;20167;-81
2021/03/07 03:21:00;;;;;;;1999.90;999.90;;;-1.50;99.90;;;;;;4980995;28;20159;-81
2021/03/07 03:23:27;;;;;;;1999.90;999.90;;;-1.50;99.90;;;;;;4980936;28;20187;-81
2021/03/07 03:25:52;;;;;;;1999.90;999.90;;;-1.50;99.90;;;;;;4980306;28;20167;-81
2021/03/07 03:28:23;;;;;;;1999.90;999.90;;;-1.50;99.90;;;;;;4981037;28;20209;-81
2021/03/07 03:30:49;;;;;;;1999.90;999.90;;;-1.50;99.90;;;;;;4979700;28;20191;-82
2021/03/07 03:33:14;;;;;;;1999.90;999.90;;;-1.50;99.90;;;;;;4979955;28;20168;-81
2021/03/07 03:35:40;;;;;;;1999.90;999.90;;;-1.50;99.90;;;;;;4963225;28;20178;-81
2021/03/07 03:38:06;;;;;;;1999.90;999.90;;;-1.60;99.90;;;;;;4980694;28;20206;-81
2021/03/07 03:40:33;;;;;;;1999.90;999.90;;;-1.50;99.90;;;;;;4980531;28;20434;-82
2021/03/07 03:43:04;;;;;;;1999.90;999.90;;;-1.50;99.90;;;;;;4980690;28;20222;-81
2021/03/07 03:45:31;;;;;;;1999.90;999.90;;;-1.50;99.90;;;;;;4981033;28;20183;-81
2021/03/07 03:48:01;;;;;;;1999.90;999.90;;;-1.60;99.90;;;;;;4981442;28;20167;-81
2021/03/07 03:50:29;;;;;;;1999.90;999.90;;;-1.50;99.90;;;;;;4981239;28;20546;-81
2021/03/07 03:52:58;;;;;;;1999.90;999.90;;;-1.50;99.90;;;;;;4963784;28;20171;-81
2021/03/07 03:55:28;;;;;;;1999.90;999.90;;;-1.50;99.90;;;;;;4980828;28;20222;-82
2021/03/07 03:58:01;;;;;;;1999.90;999.90;;;-1.50;99.90;;;;;;4981493;28;20163;-82
2021/03/07 04:00:28;;;;;;;1999.90;999.90;;;-1.50;99.90;;;;;;4981417;28;20206;-82
2021/03/07 04:02:57;;;;;;;1999.90;999.90;;;-1.60;99.90;;;;;;4981125;28;20164;-82
2021/03/07 04:05:25;;;;;;;1999.90;999.90;;;-1.60;99.90;;;;;;4980864;28;20245;-81
2021/03/07 04:07:50;;;;;;;1999.90;999.90;;;-1.70;99.90;;;;;;4981460;28;20256;-82
2021/03/07 04:10:18;;;;;;;1999.90;999.90;;;-1.70;99.90;;;;;;4982010;28;20689;-82
2021/03/07 04:12:47;;;;;;;1999.90;999.90;;;-1.70;99.90;;;;;;4965270;28;20821;-82
2021/03/07 04:15:15;;;;;;;1999.90;999.90;;;-1.70;99.90;;;;;;4985595;28;20217;-81
2021/03/07 04:17:42;;;;;;;1999.90;999.90;;;-1.70;99.90;;;;;;4984130;28;20175;-81
2021/03/07 04:20:09;;;;;;;1999.90;999.90;;;-1.60;99.90;;;;;;4984672;28;20159;-82
2021/03/07 04:22:35;;;;;;;1999.90;999.90;;;-1.60;99.90;;;;;;4967263;28;20178;-81
2021/03/07 04:25:02;;;;;;;1999.90;999.90;;;-1.70;99.90;;;;;;4984370;28;20167;-81
2021/03/07 04:27:28;;;;;;;1999.90;999.90;;;-1.60;99.90;;;;;;4966724;28;20535;-81
2021/03/07 04:29:57;;;;;;;1999.90;999.90;;;-1.60;99.90;;;;;;4983999;28;20207;-82
2021/03/07 04:32:23;;;;;;;1999.90;999.90;;;-1.60;99.90;;;;;;4984473;28;20251;-82
2021/03/07 04:34:49;;;;;;;1999.90;999.90;;;-1.60;99.90;;;;;;4984428;28;20214;-82
2021/03/07 04:37:15;;;;;;;1999.90;999.90;;;-1.70;99.90;;;;;;4983527;28;20183;-81
2021/03/07 04:39:41;;;;;;;1999.90;999.90;;;-1.80;99.90;;;;;;4966867;28;20175;-82
2021/03/07 04:42:07;;;;;;;1999.90;999.90;;;-1.90;99.90;;;;;;4984364;28;20464;-82
2021/03/07 04:44:33;;;;;;;1999.90;999.90;;;-1.90;99.90;;;;;;4967328;28;20430;-82
2021/03/07 04:46:59;;;;;;;1999.90;999.90;;;-1.90;99.90;;;;;;4983944;28;20411;-81
2021/03/07 04:49:25;;;;;;;1999.90;999.90;;;-1.90;99.90;;;;;;4983919;28;20199;-81
2021/03/07 04:54:20;;;;;;;1999.90;999.90;;;-2.00;99.90;;;;;;4963129;29;20220;-82
2021/03/07 04:56:45;;;;;;;1999.90;999.90;;;-2.10;99.90;;;;;;4964418;29;20186;-81
2021/03/07 04:59:11;;;;;;;1999.90;999.90;;;-2.10;99.90;;;;;;4964358;29;20180;-82
2021/03/07 05:01:38;;;;;;;1999.90;999.90;;;-2.10;99.90;;;;;;4946906;29;20239;-82
2021/03/07 05:04:04;;;;;;;1999.90;999.90;;;-2.10;99.90;;;;;;4964467;29;20396;-82
2021/03/07 05:06:34;;;;;;;1999.90;999.90;;;-2.20;99.90;;;;;;4964093;29;20183;-82
2021/03/07 05:09:00;;;;;;;1999.90;999.90;;;-2.20;99.90;;;;;;4964329;29;20184;-81
2021/03/07 05:11:25;;;;;;;1999.90;999.90;;;-2.20;99.90;;;;;;4964737;29;20175;-82
2021/03/07 05:13:52;;;;;;;1999.90;999.90;;;-2.30;99.90;;;;;;4964819;29;20206;-82
2021/03/07 05:16:18;;;;;;;1999.90;999.90;;;-2.20;99.90;;;;;;4964315;29;20160;-81
2021/03/07 05:18:44;;;;;;;1999.90;999.90;;;-2.30;99.90;;;;;;4964808;29;20531;-82
2021/03/07 05:21:10;;;;;;;1999.90;999.90;;;-2.30;99.90;;;;;;4964538;29;20473;-82
2021/03/07 05:23:36;;;;;;;1999.90;999.90;;;-2.30;99.90;;;;;;4964617;29;20168;-82
2021/03/07 05:26:02;;;;;;;1999.90;999.90;;;-2.30;99.90;;;;;;4963601;28;20623;-81
2021/03/07 05:28:28;;;;;;;1999.90;999.90;;;-2.30;99.90;;;;;;4964333;29;20164;-81
2021/03/07 05:30:54;;;;;;;1999.90;999.90;;;-2.30;99.90;;;;;;4947124;29;20195;-81
2021/03/07 05:33:20;;;;;;;1999.90;999.90;;;-2.40;99.90;;;;;;4964216;29;20658;-81
2021/03/07 05:35:46;;;;;;;1999.90;999.90;;;-2.40;99.90;;;;;;4946289;29;20418;-82
2021/03/07 05:38:11;;;;;;;1999.90;999.90;;;-2.40;99.90;;;;;;4946736;29;20175;-82
2021/03/07 05:40:37;;;;;;;1999.90;999.90;;;-2.40;99.90;;;;;;4946289;29;20411;-81
2021/03/07 05:43:07;;;;;;;1999.90;999.90;;;-2.40;99.90;;;;;;4965378;29;20794;-82
2021/03/07 05:45:33;;;;;;;1999.90;999.90;;;-2.40;99.90;;;;;;4964460;29;20176;-82
2021/03/07 05:47:59;;;;;;;1999.90;999.90;;;-2.50;99.90;;;;;;4964195;29;20195;-82
2021/03/07 05:50:25;;;;;;;1999.90;999.90;;;-2.40;99.90;;;;;;4963818;29;20199;-82
2021/03/07 05:52:56;;;;;;;1999.90;999.90;;;-2.40;99.90;;;;;;4964483;29;20183;-82
2021/03/07 05:55:26;;;;;;;1999.90;999.90;;;-2.40;99.90;;;;;;4964724;29;20621;-81
2021/03/07 05:57:55;;;;;;;1999.90;999.90;;;-2.40;99.90;;;;;;4965213;29;20164;-81
2021/03/07 06:00:22;;;;;;;1999.90;999.90;;;-2.40;99.90;;;;;;4964100;29;20164;-82
2021/03/07 06:02:48;;;;;;;1999.90;999.90;;;-2.40;99.90;;;;;;4964323;29;20174;-81
2021/03/07 06:05:15;;;;;;;1999.90;999.90;;;-2.40;99.90;;;;;;4964514;29;20195;-82
2021/03/07 06:07:42;;;;;;;1999.90;999.90;;;-2.40;99.90;;;;;;4964218;29;20168;-82
2021/03/07 06:10:15;;;;;;;1999.90;999.90;;;-2.40;99.90;;;;;;4947001;29;20191;-81
2021/03/07 06:12:42;;;;;;;1999.90;999.90;;;-2.40;99.90;;;;;;4964889;29;20168;-82
2021/03/07 06:15:10;;;;;;;1999.90;999.90;;;-2.40;99.90;;;;;;4965895;29;20152;-81
2021/03/07 06:17:47;;;;;;;1999.90;999.90;;;-2.30;99.90;;;;;;4952624;29;20168;-81
2021/03/07 06:20:18;;;;;;;1999.90;999.90;;;-2.30;99.90;;;;;;4950794;29;20183;-82
2021/03/07 06:23:02;;;;;;;1999.90;999.90;;;-2.30;99.90;;;;;;4947020;29;20171;-82
2021/03/07 06:25:29;;;;;;;1999.90;999.90;;;-2.30;99.90;;;;;;4964639;29;20258;-81
2021/03/07 06:27:56;;;;;;;1999.90;999.90;;;-2.20;99.90;;;;;;4963820;29;20168;-82
2021/03/07 06:30:24;;;;;;;1999.90;999.90;;;-2.30;99.90;;;;;;4964173;29;20180;-82
2021/03/07 06:33:00;;;;;;;1999.90;999.90;;;-2.30;99.90;;;;;;4964048;29;20172;-81
2021/03/07 06:35:32;;;;;;;1999.90;999.90;;;-2.30;99.90;;;;;;4963734;29;20147;-81
2021/03/07 06:38:08;;;;;;;1999.90;999.90;;;-2.30;99.90;;;;;;4962905;28;20148;-81
2021/03/07 06:40:40;;;;;;;1999.90;999.90;;;-2.30;99.90;;;;;;4963453;29;20243;-81
2021/03/07 06:43:20;;;;;;;1999.90;999.90;;;-2.20;99.90;;;;;;4963084;29;20164;-81
2021/03/07 06:45:46;;;;;;;1999.90;999.90;;;-2.10;99.90;;;;;;4945521;29;20191;-82
2021/03/07 06:48:12;;;;;;;1999.90;999.90;;;-2.10;99.90;;;;;;4962403;29;20192;-82
2021/03/07 06:50:56;;;;;;;1999.90;999.90;;;-2.00;99.90;;;;;;4962949;29;20222;-81
2021/03/07 06:53:46;;;;;;;1999.90;999.90;;;-1.90;99.90;;;;;;4962776;29;20677;-81
2021/03/07 06:56:12;;;;;;;1999.90;999.90;;;-1.90;99.90;;;;;;4962908;29;20156;-81
2021/03/07 06:58:38;;;;;;;1999.90;999.90;;;-1.80;99.90;;;;;;4962280;29;20172;-81
2021/03/07 07:01:16;;;;;;;1999.90;999.90;;;-1.80;99.90;;;;;;4946076;29;20406;-81
2021/03/07 07:03:56;;;;;;;1999.90;999.90;;;-1.70;99.90;;;;;;4945958;29;20171;-81
2021/03/07 07:06:22;;;;;;;1999.90;999.90;;;-1.70;99.90;;;;;;4963211;29;20151;-81
2021/03/07 07:08:48;;;;;;;1999.90;999.90;;;-1.60;99.90;;;;;;4962254;29;20179;-82
2021/03/07 07:11:14;;;;;;;1999.90;999.90;;;-1.50;99.90;;;;;;4962349;29;20419;-81
2021/03/07 07:13:45;;;;;;;1999.90;999.90;;;-1.50;99.90;;;;;;4944965;29;20615;-81
2021/03/07 07:16:12;;;;;;;1999.90;999.90;;;-1.40;99.90;;;;;;4962141;29;21055;-81
2021/03/07 07:18:40;;;;;;;1999.90;999.90;;;-1.50;99.90;;;;;;4962017;29;20167;-81
2021/03/07 07:21:14;;;;;;;1999.90;999.90;;;-1.40;99.90;;;;;;4961394;29;20184;-81
2021/03/07 07:23:40;;;;;;;1999.90;999.90;;;-1.30;99.90;;;;;;4961790;29;20183;-81
2021/03/07 07:26:07;;;;;;;1999.90;999.90;;;-1.20;99.90;;;;;;4961097;29;20173;-81
2021/03/07 07:28:35;;;;;;;1999.90;999.90;;;-1.20;99.90;;;;;;4943822;29;20179;-81
2021/03/07 07:31:06;;;;;;;1999.90;999.90;;;-1.20;99.90;;;;;;4943246;29;20318;-81
2021/03/07 07:33:40;;;;;;;1999.90;999.90;;;-1.10;99.90;;;;;;4960352;29;20179;-81
2021/03/07 07:36:09;;;;;;;1999.90;999.90;;;-1.00;99.90;;;;;;4960610;29;20641;-81
2021/03/07 07:38:37;;;;;;;1999.90;999.90;;;-0.90;99.90;;;;;;4944574;29;20239;-81
2021/03/07 07:41:03;;;;;;;1999.90;999.90;;;-0.80;99.90;;;;;;4960919;29;20182;-81
2021/03/07 07:43:49;;;;;;;1999.90;999.90;;;-0.80;99.90;;;;;;4961272;29;20259;-81
2021/03/07 07:46:15;;;;;;;1999.90;999.90;;;-0.60;99.90;;;;;;4944154;29;20441;-81
2021/03/07 07:48:41;;;;;;;1999.90;999.90;;;-0.60;99.90;;;;;;4944847;29;20760;-80
2021/03/07 07:51:38;;;;;;;1999.90;999.90;;;-0.60;99.90;;;;;;4947338;29;20293;-81
2021/03/07 07:54:08;;;;;;;1999.90;999.90;;;-0.50;99.90;;;;;;4947977;29;20187;-81
2021/03/07 07:56:41;;;;;;;1999.90;999.90;;;-0.40;99.90;;;;;;4966044;29;20148;-81
2021/03/07 07:59:11;;;;;;;1999.90;999.90;;;-0.30;99.90;;;;;;4966885;29;20155;-81
2021/03/07 08:01:56;;;;;;;1999.90;999.90;;;-0.30;99.90;;;;;;4947609;29;20168;-81
2021/03/07 08:04:28;;;;;;;1999.90;999.90;;;-0.30;99.90;;;;;;4965279;29;20694;-81
2021/03/07 08:06:58;;;;;;;1999.90;999.90;;;-0.20;99.90;;;;;;4964465;29;20619;-79
2021/03/07 08:09:44;;;;;;;1999.90;999.90;;;-0.10;99.90;;;;;;4964936;29;20188;-80
2021/03/07 08:12:45;;;;;;;1999.90;999.90;;;-0.10;99.90;;;;;;4947310;29;20172;-80
2021/03/07 08:15:31;;;;;;;1999.90;999.90;;;0.00;99.90;;;;;;4965227;29;20239;-80
2021/03/07 08:18:00;;;;;;;1999.90;999.90;;;0.00;99.90;;;;;;4958426;29;20185;-80
2021/03/07 08:20:38;;;;;;;1999.90;999.90;;;0.10;99.90;;;;;;4948009;29;20208;-80
2021/03/07 08:23:09;;;;;;;1999.90;999.90;;;0.10;99.90;;;;;;4946954;29;20254;-80
2021/03/07 08:25:55;;;;;;;1999.90;999.90;;;0.10;99.90;;;;;;4947297;29;20178;-80
2021/03/07 08:30:58;;;;;;;1999.90;999.90;;;0.20;99.90;;;;;;4964039;29;20207;-80
2021/03/07 08:33:27;;;;;;;1999.90;999.90;;;0.30;99.90;;;;;;4964151;29;20148;-80
2021/03/07 08:36:16;;;;;;;1999.90;999.90;;;0.40;99.90;;;;;;4963828;29;20224;-80
2021/03/07 08:38:54;;;;;;;1999.90;999.90;;;0.50;99.90;;;;;;4963843;29;20160;-80
2021/03/07 08:41:44;;;;;;;1999.90;999.90;;;0.50;99.90;;;;;;4945723;29;20631;-80
2021/03/07 08:44:11;;;;;;;1999.90;999.90;;;0.60;99.90;;;;;;4963311;29;20176;-80
2021/03/07 08:46:40;;;;;;;1999.90;999.90;;;0.70;99.90;;;;;;4945558;29;20168;-80
2021/03/07 08:49:10;;;;;;;1999.90;999.90;;;0.80;99.90;;;;;;4963157;29;20184;-80
2021/03/07 08:51:38;;;;;;;1999.90;999.90;;;0.80;99.90;;;;;;4962961;29;20164;-80
2021/03/07 08:54:12;;;;;;;1999.90;999.90;;;0.80;99.90;;;;;;4944945;29;20619;-80
2021/03/07 08:56:38;;;;;;;1999.90;999.90;;;0.90;99.90;;;;;;4945399;29;20175;-80
2021/03/07 08:59:05;;;;;;;1999.90;999.90;;;1.00;99.90;;;;;;4945160;28;20172;-80
2021/03/07 09:01:31;;;;;;;1999.90;999.90;;;1.10;99.90;;;;;;4962869;29;20168;-80
2021/03/07 09:04:00;;;;;;;1999.90;999.90;;;1.00;99.90;;;;;;4945215;29;20195;-80
2021/03/07 09:06:31;;;;;;;1999.90;999.90;;;1.10;99.90;;;;;;4962413;29;20174;-80
2021/03/07 09:09:19;;;;;;;1999.90;999.90;;;1.10;99.90;;;;;;4961825;29;20195;-80
2021/03/07 09:12:00;;;;;;;1999.90;999.90;;;1.10;99.90;;;;;;4962301;29;20172;-79
2021/03/07 09:14:38;;;;;;;1999.90;999.90;;;1.20;99.90;;;;;;4962145;29;20182;-80
2021/03/07 09:17:06;;;;;;;1999.90;999.90;;;1.30;99.90;;;;;;4961555;29;20631;-80
2021/03/07 09:19:39;;;;;;;1999.90;999.90;;;1.30;99.90;;;;;;4962113;29;20179;-80
2021/03/07 09:22:26;;;;;;;1999.90;999.90;;;1.30;99.90;;;;;;4944814;29;20203;-80
2021/03/07 09:25:04;;;;;;;1999.90;999.90;;;1.40;99.90;;;;;;4944557;29;20187;-80
2021/03/07 09:27:38;;;;;;;1999.90;999.90;;;1.50;99.90;;;;;;4961754;29;20163;-80
2021/03/07 09:30:18;;;;;;;1999.90;999.90;;;1.60;99.90;;;;;;4944319;29;20615;-80
2021/03/07 09:32:46;;;;;;;1999.90;999.90;;;1.70;99.90;;;;;;4961652;29;20188;-80
2021/03/07 09:35:25;;;;;;;1999.90;999.90;;;1.80;99.90;;;;;;4961586;29;20175;-80
2021/03/07 09:38:02;;;;;;;1999.90;999.90;;;1.80;99.90;;;;;;4961811;29;20168;-80
2021/03/07 09:40:33;;;;;;;1999.90;999.90;;;2.00;99.90;;;;;;4961165;29;20215;-80
2021/03/07 09:43:02;;;;;;;1999.90;999.90;;;2.10;99.90;;;;;;4944038;29;20168;-80
2021/03/07 09:45:29;;;;;;;1999.90;999.90;;;2.20;99.90;;;;;;4960329;29;20175;-80
2021/03/07 09:47:55;;;;;;;1999.90;999.90;;;2.30;99.90;;;;;;4960550;29;20203;-80
2021/03/07 09:50:23;;;;;;;1999.90;999.90;;;2.40;99.90;;;;;;4961140;29;20195;-80
2021/03/07 09:52:49;;;;;;;1999.90;999.90;;;2.60;99.90;;;;;;4943373;29;20262;-80
2021/03/07 09:55:31;;;;;;;1999.90;999.90;;;2.70;99.90;;;;;;4944363;29;20195;-80
2021/03/07 09:58:08;;;;;;;1999.90;999.90;;;2.90;99.90;;;;;;4951095;29;20171;-80
2021/03/07 10:00:36;;;;;;;1999.90;999.90;;;3.00;99.90;;;;;;4950013;29;20179;-80
2021/03/07 10:03:03;;;;;;;1999.90;999.90;;;3.20;99.90;;;;;;4959627;29;20168;-80
2021/03/07 10:05:29;;;;;;;1999.90;999.90;;;3.30;99.90;;;;;;4941700;29;20183;-80
2021/03/07 10:07:55;;;;;;;1999.90;999.90;;;3.50;99.90;;;;;;4958670;29;20172;-79
2021/03/07 10:10:25;;;;;;;1999.90;999.90;;;3.70;99.90;;;;;;4958944;29;20194;-80
2021/03/07 10:12:54;;;;;;;1999.90;999.90;;;3.90;99.90;;;;;;4941469;29;20407;-80
2021/03/07 10:15:30;;;;;;;1999.90;999.90;;;4.20;99.90;;;;;;4959247;29;20140;-80
2021/03/07 10:18:18;;;;;;;1999.90;999.90;;;4.40;99.90;;;;;;4958750;29;20199;-80
2021/03/07 10:20:49;;;;;;;1999.90;999.90;;;4.60;99.90;;;;;;4941667;29;20234;-80
2021/03/07 10:23:15;;;;;;;1999.90;999.90;;;4.80;99.90;;;;;;4958767;29;20246;-80
2021/03/07 10:25:46;;;;;;;1999.90;999.90;;;5.00;99.90;;;;;;4958433;29;20163;-80
2021/03/07 10:28:29;;;;;;;1999.90;999.90;;;5.20;99.70;;;;;;4941298;29;20175;-80
2021/03/07 10:31:09;;;;;;;1999.90;999.90;;;5.40;98.30;;;;;;4959127;29;20210;-81
2021/03/07 10:33:35;;;;;;;1999.90;999.90;;;5.50;94.90;;;;;;4942127;29;20168;-80
2021/03/07 10:36:09;;;;;;;1999.90;999.90;;;5.70;93.30;;;;;;4941584;29;20175;-79
2021/03/07 10:39:11;;;;;;;1999.90;999.90;;;5.70;82.20;;;;;;4941623;29;20194;-80
2021/03/07 10:41:37;;;;;;;1999.90;999.90;;;5.90;89.10;;;;;;4956331;29;20194;-80
2021/03/07 10:44:05;;;;;;;1999.90;999.90;;;6.10;81.40;;;;;;4959124;29;20195;-79
2021/03/07 10:46:36;;;;;;;1999.90;999.90;;;6.20;77.30;;;;;;4942148;29;20978;-79
2021/03/07 10:49:05;;;;;;;1999.90;999.90;;;6.20;59.20;;;;;;4941945;29;20171;-81
2021/03/07 10:51:31;;;;;;;1999.90;999.90;;;6.40;62.60;;;;;;4941736;29;20203;-81
2021/03/07 10:56:40;;;;;;;1999.90;999.90;;;6.60;45.50;;;;;;4979708;23;20605;-86
2021/03/07 10:59:24;;;;;;;1999.90;999.90;;;6.70;47.40;;;;;;4974834;28;20159;-86
2021/03/07 11:01:53;;;;;;;1999.90;999.90;;;6.80;51.30;;;;;;4957580;28;20283;-86
2021/03/07 11:04:19;;;;;;;1999.90;999.90;;;7.00;48.30;;;;;;4974729;28;20171;-86
2021/03/07 11:07:02;;;;;;;1999.90;999.90;;;7.10;38.50;;;;;;4957333;28;20179;-86
2021/03/07 11:09:28;;;;;;;1999.90;999.90;;;7.10;26.10;;;;;;4957780;28;20226;-86
2021/03/07 11:12:04;;;;;;;1999.90;999.90;;;7.10;25.70;;;;;;4957447;28;20163;-86
2021/03/07 11:14:41;;;;;;;1999.90;999.90;;;7.30;27.60;;;;;;4957326;28;20185;-86
2021/03/07 11:17:25;;;;;;;1999.90;999.90;;;7.30;23.00;;;;;;4975176;28;20301;-86
2021/03/07 11:19:51;;;;;;;1999.90;999.90;;;7.50;25.60;;;;;;4975789;28;20171;-86
2021/03/07 11:22:24;;;;;;;1999.90;999.90;;;7.50;14.90;;;;;;4974619;28;20167;-86
2021/03/07 11:24:57;;;;;;;1999.90;999.90;;;7.50;14.10;;;;;;4974044;28;20155;-86
2021/03/07 11:27:32;;;;;;;1999.90;999.90;;;7.50;19.30;;;;;;4957986;28;20630;-86
2021/03/07 11:30:05;;;;;;;1999.90;999.90;;;7.60;16.40;;;;;;4974656;28;20249;-86
2021/03/07 11:32:34;;;;;;;1999.90;999.90;;;7.70;17.40;;;;;;4975226;28;20294;-86
2021/03/07 11:35:00;;;;;;;1999.90;999.90;;;7.60;13.00;;;;;;4974933;28;20166;-87
2021/03/07 11:37:29;;;;;;;1999.90;999.90;;;7.80;14.30;;;;;;4974918;28;20179;-87
2021/03/07 11:39:59;;;;;;;1999.90;999.90;;;7.70;11.30;;;;;;4957011;28;20418;-87
2021/03/07 11:42:35;;;;;;;1999.90;999.90;;;7.80;10.80;;;;;;4956992;28;20167;-87
2021/03/07 11:45:07;;;;;;;1999.90;999.90;;;7.90;9.50;;;;;;4974559;28;20618;-87
2021/03/07 11:47:36;;;;;;;1999.90;999.90;;;8.00;12.50;;;;;;4974578;28;20186;-87
2021/03/07 11:50:09;;;;;;;1999.90;999.90;;;8.10;10.60;;;;;;4974448;28;20234;-87
2021/03/07 11:52:34;;;;;;;1999.90;999.90;;;8.30;9.80;;;;;;4957963;28;20171;-87
2021/03/07 11:55:03;;;;;;;1999.90;999.90;;;8.10;7.60;;;;;;4956807;28;20230;-87
2021/03/07 11:57:42;;;;;;;1999.90;999.90;;;8.20;8.40;;;;;;4956492;28;20186;-87
2021/03/07 12:00:21;;;;;;;1999.90;999.90;;;8.30;10.10;;;;;;4974683;28;20163;-87
2021/03/07 12:03:01;;;;;;;1999.90;999.90;;;8.40;8.00;;;;;;4974469;28;20147;-87
2021/03/07 12:11:41;;;;;;;1999.90;999.90;;;8.20;8.30;;;;;;4933606;29;20541;-87
2021/03/07 12:14:13;;;;;;;1999.90;999.90;;;8.40;7.90;;;;;;4932594;29;20184;-88
2021/03/07 12:16:46;;;;;;;1999.90;999.90;;;8.60;9.00;;;;;;4933421;29;20640;-87
2021/03/07 12:20:01;;;;;;;;;;;;;;;;;;;;;
2021/03/07 12:22:31;;;;;;;1999.90;999.90;;;8.80;10.50;;;;;;4948358;28;20212;-87
2021/03/07 12:25:15;;;;;;;1999.90;999.90;;;8.90;9.50;;;;;;4957282;28;20183;-88
2021/03/07 12:28:23;;;;;;;1999.90;999.90;;;9.10;11.10;;;;;;4956535;28;20222;-88
2021/03/07 12:38:49;;;;;;;;;;;;;;;;;;;;;
2021/03/07 12:41:28;;;;;;;1999.90;999.90;;;8.60;8.50;;;;;;4899610;29;20278;-88
2021/03/07 12:48:12;;;;;;;;;;;;;;;;;;;;;